createdAt,value
2023-03-06T00:01:31.503Z,0.70
2023-03-06T00:03:44.412Z,1.00
2023-03-06T00:05:58.619Z,1.50
2023-03-06T00:08:12.126Z,13.10
2023-03-06T00:10:26.767Z,4.70
2023-03-06T00:12:39.318Z,1.90
2023-03-06T00:14:52.966Z,1.60
2023-03-06T00:17:05.538Z,1.60
2023-03-06T00:19:18.584Z,1.30
2023-03-06T00:21:31.421Z,0.80
2023-03-06T00:23:44.890Z,2.00
2023-03-06T00:25:58.353Z,2.10
2023-03-06T00:28:11.635Z,5.50
2023-03-06T00:30:26.859Z,3.10
2023-03-06T00:32:39.412Z,1.10
2023-03-06T00:34:54.686Z,1.70
2023-03-06T00:37:07.426Z,1.00
2023-03-06T00:39:20.191Z,1.30
2023-03-06T00:41:32.742Z,1.20
2023-03-06T00:43:45.738Z,1.20
2023-03-06T00:45:58.608Z,1.00
2023-03-06T00:48:12.563Z,1.10
2023-03-06T00:50:25.876Z,1.20
2023-03-06T00:52:38.948Z,1.20
2023-03-06T00:54:52.210Z,2.40
2023-03-06T00:57:05.000Z,2.40
2023-03-06T00:59:17.747Z,3.10
2023-03-06T01:01:30.562Z,1.50
2023-03-06T01:03:43.476Z,1.70
2023-03-06T01:05:56.235Z,2.30
2023-03-06T01:08:10.317Z,1.70
2023-03-06T01:10:23.862Z,1.60
2023-03-06T01:12:36.817Z,1.30
2023-03-06T01:14:49.556Z,3.50
2023-03-06T01:17:02.097Z,1.50
2023-03-06T01:19:15.261Z,1.60
2023-03-06T01:21:28.234Z,1.60
2023-03-06T01:23:40.761Z,3.10
2023-03-06T01:25:53.798Z,2.50
2023-03-06T01:28:06.829Z,1.70
2023-03-06T01:30:21.983Z,1.90
2023-03-06T01:32:34.982Z,1.60
2023-03-06T01:34:47.694Z,1.50
2023-03-06T01:37:00.384Z,1.20
2023-03-06T01:39:13.851Z,1.60
2023-03-06T01:41:26.969Z,1.40
2023-03-06T01:43:43.040Z,1.10
2023-03-06T01:46:25.035Z,1.30
2023-03-06T01:48:38.568Z,1.40
2023-03-06T01:50:52.110Z,1.50
2023-03-06T01:53:06.668Z,1.10
2023-03-06T01:55:25.434Z,1.50
2023-03-06T01:57:41.587Z,1.20
2023-03-06T02:00:05.280Z,1.40
2023-03-06T02:02:26.210Z,1.50
2023-03-06T02:04:41.333Z,1.10
2023-03-06T02:06:55.110Z,1.60
2023-03-06T02:09:09.904Z,1.40
2023-03-06T02:11:24.250Z,1.60
2023-03-06T02:13:37.494Z,1.70
2023-03-06T02:15:50.475Z,1.90
2023-03-06T02:18:05.948Z,1.60
2023-03-06T02:20:26.340Z,1.60
2023-03-06T02:22:46.738Z,2.10
2023-03-06T02:25:07.537Z,2.20
2023-03-06T02:27:20.948Z,1.80
2023-03-06T02:29:35.627Z,2.20
2023-03-06T02:31:48.955Z,1.90
2023-03-06T02:35:00.603Z,2.00
2023-03-06T02:37:15.531Z,1.40
2023-03-06T02:39:31.627Z,1.50
2023-03-06T02:41:45.073Z,2.60
2023-03-06T02:43:59.151Z,1.60
2023-03-06T02:46:11.946Z,1.90
2023-03-06T02:48:25.652Z,1.80
2023-03-06T02:50:39.753Z,2.00
2023-03-06T02:52:53.904Z,1.60
2023-03-06T02:55:07.295Z,1.80
2023-03-06T02:57:20.826Z,1.50
2023-03-06T02:59:35.614Z,1.60
2023-03-06T03:01:50.867Z,1.50
2023-03-06T03:04:04.245Z,1.90
2023-03-06T03:06:17.885Z,1.90
2023-03-06T03:08:31.530Z,1.50
2023-03-06T03:10:46.214Z,1.40
2023-03-06T03:13:00.330Z,1.40
2023-03-06T03:15:16.165Z,1.10
2023-03-06T03:17:29.362Z,1.80
2023-03-06T03:19:42.791Z,1.90
2023-03-06T03:21:56.142Z,1.70
2023-03-06T03:24:09.411Z,1.70
2023-03-06T03:26:24.428Z,1.40
2023-03-06T03:28:50.123Z,1.50
2023-03-06T03:31:09.407Z,1.70
2023-03-06T03:33:22.331Z,1.80
2023-03-06T03:35:35.694Z,1.40
2023-03-06T03:37:48.831Z,1.60
2023-03-06T03:40:02.357Z,1.70
2023-03-06T03:42:16.672Z,1.30
2023-03-06T03:44:29.778Z,1.70
2023-03-06T03:46:43.261Z,1.60
2023-03-06T03:49:00.708Z,1.40
2023-03-06T03:51:17.620Z,1.20
2023-03-06T03:53:34.003Z,1.10
2023-03-06T03:55:49.467Z,1.40
2023-03-06T03:58:02.505Z,1.40
2023-03-06T04:00:20.546Z,1.60
2023-03-06T04:02:39.536Z,1.10
2023-03-06T04:04:59.267Z,1.20
2023-03-06T04:07:13.176Z,1.40
2023-03-06T04:09:26.839Z,1.20
2023-03-06T04:11:40.116Z,1.00
2023-03-06T04:13:53.896Z,1.50
2023-03-06T04:16:06.904Z,2.40
2023-03-06T04:18:21.053Z,1.70
2023-03-06T04:20:34.226Z,1.20
2023-03-06T04:22:48.322Z,1.20
2023-03-06T04:25:01.700Z,2.30
2023-03-06T04:27:14.819Z,2.00
2023-03-06T04:29:27.737Z,1.20
2023-03-06T04:31:40.813Z,1.80
2023-03-06T04:33:53.899Z,1.80
2023-03-06T04:36:06.917Z,1.70
2023-03-06T04:38:21.024Z,1.90
2023-03-06T04:40:35.961Z,1.60
2023-03-06T04:42:48.894Z,1.40
2023-03-06T04:45:01.568Z,2.10
2023-03-06T04:47:17.524Z,1.60
2023-03-06T04:49:32.783Z,2.20
2023-03-06T04:51:46.559Z,2.50
2023-03-06T04:53:59.256Z,2.30
2023-03-06T04:56:12.670Z,1.90
2023-03-06T04:58:27.053Z,2.40
2023-03-06T05:00:40.071Z,2.40
2023-03-06T05:02:53.710Z,1.90
2023-03-06T05:05:07.896Z,2.70
2023-03-06T05:07:20.784Z,2.10
2023-03-06T05:09:33.971Z,2.50
2023-03-06T05:11:48.775Z,2.50
2023-03-06T05:14:01.415Z,2.30
2023-03-06T05:16:14.974Z,2.00
2023-03-06T05:18:28.277Z,2.80
2023-03-06T05:20:41.543Z,1.80
2023-03-06T05:22:54.679Z,2.50
2023-03-06T05:25:07.950Z,2.40
2023-03-06T05:27:20.837Z,2.40
2023-03-06T05:29:33.679Z,2.70
2023-03-06T05:31:46.420Z,2.80
2023-03-06T05:34:01.786Z,3.40
2023-03-06T05:36:16.521Z,2.30
2023-03-06T05:38:30.092Z,2.90
2023-03-06T05:40:46.524Z,3.00
2023-03-06T05:42:59.431Z,2.70
2023-03-06T05:45:14.272Z,2.90
2023-03-06T05:47:27.379Z,2.70
2023-03-06T05:49:41.244Z,3.10
2023-03-06T05:51:54.232Z,2.80
2023-03-06T05:54:07.048Z,3.00
2023-03-06T05:56:20.562Z,2.40
2023-03-06T05:58:34.398Z,2.60
2023-03-06T06:00:47.406Z,2.30
2023-03-06T06:03:02.996Z,2.00
2023-03-06T06:05:16.882Z,2.40
2023-03-06T06:07:29.691Z,2.10
2023-03-06T06:09:42.644Z,2.20
2023-03-06T06:11:58.076Z,1.70
2023-03-06T06:14:10.622Z,2.20
2023-03-06T06:16:23.578Z,1.90
2023-03-06T06:18:36.243Z,1.90
2023-03-06T06:20:49.333Z,1.60
2023-03-06T06:23:02.049Z,1.60
2023-03-06T06:25:18.115Z,1.40
2023-03-06T06:27:31.277Z,1.90
2023-03-06T06:29:44.125Z,1.60
2023-03-06T06:31:57.529Z,2.70
2023-03-06T06:34:10.954Z,2.50
2023-03-06T06:36:24.969Z,2.60
2023-03-06T06:38:37.717Z,2.70
2023-03-06T06:41:26.823Z,2.80
2023-03-06T06:43:24.084Z,2.70
2023-03-06T06:45:36.770Z,3.10
2023-03-06T06:47:52.448Z,2.70
2023-03-06T06:50:06.289Z,2.90
2023-03-06T06:52:20.470Z,2.50
2023-03-06T06:54:33.223Z,3.10
2023-03-06T06:56:46.038Z,4.20
2023-03-06T06:59:15.730Z,3.90
2023-03-06T07:01:30.227Z,3.50
2023-03-06T07:03:43.336Z,4.40
2023-03-06T07:06:01.943Z,3.80
2023-03-06T07:08:15.304Z,3.30
2023-03-06T07:10:28.305Z,2.80
2023-03-06T07:12:41.254Z,2.60
2023-03-06T07:14:54.102Z,3.50
2023-03-06T07:17:06.745Z,3.50
2023-03-06T07:19:20.602Z,3.30
2023-03-06T07:21:33.860Z,3.10
2023-03-06T07:23:47.378Z,3.10
2023-03-06T07:26:01.176Z,3.20
2023-03-06T07:28:13.761Z,4.30
2023-03-06T07:30:27.063Z,3.90
2023-03-06T07:32:40.034Z,4.50
2023-03-06T07:34:55.157Z,3.90
2023-03-06T07:37:13.217Z,3.60
2023-03-06T07:39:26.428Z,4.20
2023-03-06T07:41:39.536Z,4.00
2023-03-06T07:43:53.954Z,3.40
2023-03-06T07:46:06.957Z,3.80
2023-03-06T07:48:20.596Z,4.10
2023-03-06T07:50:34.301Z,3.30
2023-03-06T07:52:47.052Z,3.80
2023-03-06T07:55:00.005Z,3.30
2023-03-06T07:57:12.885Z,4.00
2023-03-06T07:59:27.093Z,4.30
2023-03-06T08:01:41.354Z,3.70
2023-03-06T08:03:54.746Z,4.40
2023-03-06T08:06:16.657Z,3.70
2023-03-06T08:08:29.643Z,3.30
2023-03-06T08:10:42.391Z,3.80
2023-03-06T08:12:55.712Z,3.70
2023-03-06T08:15:09.561Z,3.80
2023-03-06T08:17:22.494Z,3.60
2023-03-06T08:19:35.333Z,3.90
2023-03-06T08:21:49.310Z,3.90
2023-03-06T08:24:02.402Z,3.20
2023-03-06T08:26:18.286Z,3.50
2023-03-06T08:28:31.408Z,3.30
2023-03-06T08:30:44.395Z,3.40
2023-03-06T08:32:57.001Z,3.50
2023-03-06T08:35:10.914Z,3.90
2023-03-06T08:37:24.309Z,3.10
2023-03-06T08:39:37.038Z,3.50
2023-03-06T08:41:50.006Z,3.80
2023-03-06T08:44:03.467Z,3.70
2023-03-06T08:46:17.032Z,3.50
2023-03-06T08:48:29.964Z,3.90
2023-03-06T08:50:43.944Z,4.20
2023-03-06T08:52:56.832Z,5.20
2023-03-06T08:55:11.093Z,4.70
2023-03-06T08:57:25.003Z,4.40
2023-03-06T08:59:37.626Z,5.40
2023-03-06T09:01:50.419Z,5.00
2023-03-06T09:04:04.909Z,3.40
2023-03-06T09:06:18.603Z,2.90
2023-03-06T09:08:31.706Z,2.70
2023-03-06T09:10:48.747Z,2.50
2023-03-06T09:13:01.621Z,2.10
2023-03-06T09:15:15.849Z,2.50
2023-03-06T09:17:28.714Z,2.70
2023-03-06T09:19:41.385Z,2.20
2023-03-06T09:21:55.029Z,2.30
2023-03-06T09:24:07.952Z,2.40
2023-03-06T09:26:20.982Z,2.70
2023-03-06T09:28:34.165Z,2.60
2023-03-06T09:30:47.889Z,1.70
2023-03-06T09:33:01.388Z,1.70
2023-03-06T09:35:19.320Z,2.10
2023-03-06T09:37:34.684Z,1.90
2023-03-06T09:39:47.863Z,1.60
2023-03-06T09:42:01.567Z,2.00
2023-03-06T09:44:19.564Z,1.40
2023-03-06T09:46:40.992Z,1.30
2023-03-06T09:49:11.226Z,1.80
2023-03-06T09:51:30.645Z,1.70
2023-03-06T09:54:02.185Z,1.60
2023-03-06T09:56:21.084Z,1.50
2023-03-06T09:58:37.263Z,1.70
2023-03-06T10:00:58.844Z,1.60
2023-03-06T10:03:24.976Z,2.20
2023-03-06T10:05:43.720Z,1.60
2023-03-06T10:08:04.060Z,1.80
2023-03-06T10:10:24.053Z,2.50
2023-03-06T10:12:42.313Z,2.40
2023-03-06T10:15:03.901Z,2.80
2023-03-06T10:17:21.303Z,2.50
2023-03-06T10:19:39.300Z,2.20
2023-03-06T10:21:59.622Z,2.20
2023-03-06T10:24:27.962Z,2.20
2023-03-06T10:26:48.166Z,2.30
2023-03-06T10:29:34.682Z,2.60
2023-03-06T10:31:54.794Z,2.80
2023-03-06T10:34:19.149Z,2.90
2023-03-06T10:36:33.351Z,2.60
2023-03-06T10:38:47.396Z,2.50
2023-03-06T10:41:09.548Z,2.70
2023-03-06T10:43:22.373Z,3.00
2023-03-06T10:45:48.504Z,2.40
2023-03-06T10:48:15.253Z,2.00
2023-03-06T10:50:33.905Z,2.00
2023-03-06T10:52:46.676Z,2.40
2023-03-06T10:55:27.185Z,2.00
2023-03-06T10:57:39.971Z,2.00
2023-03-06T11:00:00.845Z,2.70
2023-03-06T11:02:31.738Z,3.70
2023-03-06T11:04:49.048Z,1.70
2023-03-06T11:07:20.527Z,2.30
2023-03-06T11:09:34.389Z,3.30
2023-03-06T11:11:47.072Z,3.10
2023-03-06T11:14:04.885Z,3.00
2023-03-06T11:16:26.348Z,3.20
2023-03-06T11:18:43.440Z,2.60
2023-03-06T11:20:58.856Z,2.60
2023-03-06T11:23:17.181Z,2.70
2023-03-06T11:25:35.648Z,2.70
2023-03-06T11:27:55.840Z,2.60
2023-03-06T11:30:18.951Z,2.30
2023-03-06T11:32:37.159Z,3.00
2023-03-06T11:34:55.422Z,2.70
2023-03-06T11:37:16.763Z,2.30
2023-03-06T11:39:38.296Z,3.10
2023-03-06T11:42:00.937Z,2.50
2023-03-06T11:44:25.496Z,2.80
2023-03-06T11:46:41.279Z,2.30
2023-03-06T11:49:02.057Z,2.40
2023-03-06T11:51:22.222Z,3.00
2023-03-06T11:53:40.017Z,3.60
2023-03-06T11:56:01.280Z,3.20
2023-03-06T11:58:46.354Z,3.20
2023-03-06T12:01:07.304Z,3.30
2023-03-06T12:03:42.717Z,3.30
2023-03-06T12:06:04.672Z,2.80
2023-03-06T12:08:38.110Z,2.70
2023-03-06T12:10:53.639Z,3.10
2023-03-06T12:13:34.843Z,2.90
2023-03-06T12:16:10.213Z,2.60
2023-03-06T12:18:37.729Z,2.90
2023-03-06T12:21:04.048Z,3.20
2023-03-06T12:23:33.322Z,2.40
2023-03-06T12:25:53.612Z,2.60
2023-03-06T12:28:27.031Z,3.00
2023-03-06T12:31:00.328Z,2.60
2023-03-06T12:33:23.803Z,2.60
2023-03-06T12:35:58.623Z,2.90
2023-03-06T12:38:29.827Z,2.40
2023-03-06T12:41:04.366Z,2.50
2023-03-06T12:43:39.601Z,2.20
2023-03-06T12:45:54.640Z,2.10
2023-03-06T12:48:11.992Z,2.20
2023-03-06T12:50:31.077Z,1.90
2023-03-06T12:52:44.467Z,2.50
2023-03-06T12:54:58.551Z,2.60
2023-03-06T12:57:13.768Z,2.60
2023-03-06T12:59:50.122Z,2.20
2023-03-06T13:02:36.510Z,2.40
2023-03-06T13:05:03.415Z,1.80
2023-03-06T13:07:30.741Z,1.60
2023-03-06T13:10:02.073Z,2.10
2023-03-06T13:12:29.072Z,1.80
2023-03-06T13:14:58.220Z,1.70
2023-03-06T13:17:36.204Z,2.30
2023-03-06T13:19:49.257Z,2.10
2023-03-06T13:22:16.985Z,2.30
2023-03-06T13:24:32.468Z,1.90
2023-03-06T13:27:00.587Z,1.90
2023-03-06T13:30:03.834Z,1.70
2023-03-06T13:32:31.919Z,1.70
2023-03-06T13:34:47.825Z,1.90
2023-03-06T13:37:36.785Z,2.60
2023-03-06T13:40:28.920Z,2.00
2023-03-06T13:43:00.679Z,1.80
2023-03-06T13:45:20.778Z,2.40
2023-03-06T13:48:10.963Z,1.90
2023-03-06T13:50:43.272Z,1.20
2023-03-06T13:53:19.676Z,1.40
2023-03-06T13:55:40.810Z,1.20
2023-03-06T13:58:13.806Z,1.80
2023-03-06T14:00:50.371Z,1.60
2023-03-06T14:03:22.209Z,1.30
2023-03-06T14:05:48.094Z,1.30
2023-03-06T14:08:14.409Z,1.50
2023-03-06T14:10:29.206Z,1.40
2023-03-06T14:12:45.582Z,0.90
2023-03-06T14:15:02.855Z,1.20
2023-03-06T14:17:27.135Z,1.30
2023-03-06T14:19:42.976Z,1.70
2023-03-06T14:22:00.836Z,1.10
2023-03-06T14:24:21.944Z,2.20
2023-03-06T14:26:43.573Z,1.50
2023-03-06T14:29:03.364Z,2.00
2023-03-06T14:31:22.237Z,2.10
2023-03-06T14:33:52.686Z,1.80
2023-03-06T14:36:10.586Z,1.30
2023-03-06T14:38:23.938Z,1.70
2023-03-06T14:40:40.237Z,1.50
2023-03-06T14:42:53.206Z,1.30
2023-03-06T14:45:18.303Z,1.70
2023-03-06T14:47:34.793Z,1.90
2023-03-06T14:49:48.399Z,1.30
2023-03-06T14:52:02.642Z,1.70
2023-03-06T14:54:22.400Z,1.50
2023-03-06T14:56:37.678Z,1.50
2023-03-06T14:58:57.685Z,1.60
2023-03-06T15:01:14.235Z,1.60
2023-03-06T15:03:33.729Z,1.40
2023-03-06T15:05:49.946Z,2.00
2023-03-06T15:08:06.536Z,1.50
2023-03-06T15:10:29.090Z,1.30
2023-03-06T15:12:43.000Z,1.80
2023-03-06T15:15:05.054Z,2.20
2023-03-06T15:17:32.291Z,2.10
2023-03-06T15:19:47.154Z,1.60
2023-03-06T15:21:59.951Z,2.90
2023-03-06T15:24:40.449Z,1.80
2023-03-06T15:26:58.708Z,1.90
2023-03-06T15:29:24.939Z,1.50
2023-03-06T15:31:38.742Z,1.80
2023-03-06T15:34:17.849Z,1.70
2023-03-06T15:36:33.048Z,2.00
2023-03-06T15:38:47.852Z,1.70
2023-03-06T15:41:05.617Z,2.00
2023-03-06T15:43:18.528Z,2.10
2023-03-06T15:45:33.090Z,2.30
2023-03-06T15:47:46.028Z,2.90
2023-03-06T15:49:59.996Z,2.10
2023-03-06T15:52:13.726Z,2.40
2023-03-06T15:54:26.308Z,2.30
2023-03-06T15:56:42.170Z,2.10
2023-03-06T15:58:55.202Z,2.10
2023-03-06T16:01:08.292Z,2.50
2023-03-06T16:03:21.289Z,2.00
2023-03-06T16:05:34.079Z,1.80
2023-03-06T16:07:47.938Z,2.00
2023-03-06T16:10:00.602Z,1.70
2023-03-06T16:12:20.404Z,1.90
2023-03-06T16:14:33.487Z,1.80
2023-03-06T16:16:46.338Z,2.00
2023-03-06T16:18:58.802Z,2.20
2023-03-06T16:21:12.016Z,2.00
2023-03-06T16:23:24.947Z,2.50
2023-03-06T16:25:37.534Z,1.50
2023-03-06T16:27:56.584Z,1.90
2023-03-06T16:30:10.076Z,2.10
2023-03-06T16:32:23.654Z,1.60
2023-03-06T16:34:36.306Z,1.70
2023-03-06T16:36:49.749Z,1.40
2023-03-06T16:39:02.609Z,2.00
2023-03-06T16:41:15.464Z,2.00
2023-03-06T16:43:28.413Z,2.20
2023-03-06T16:45:42.795Z,1.70
2023-03-06T16:47:55.607Z,2.20
2023-03-06T16:50:08.938Z,1.80
2023-03-06T16:52:21.751Z,2.00
2023-03-06T16:54:34.748Z,2.10
2023-03-06T16:56:48.024Z,2.50
2023-03-06T16:59:00.735Z,2.40
2023-03-06T17:01:17.991Z,2.20
2023-03-06T17:03:30.933Z,2.40
2023-03-06T17:05:44.629Z,2.50
2023-03-06T17:07:57.491Z,2.20
2023-03-06T17:10:16.448Z,1.90
2023-03-06T17:12:29.494Z,2.70
2023-03-06T17:14:42.763Z,2.80
2023-03-06T17:16:59.194Z,2.50
2023-03-06T17:19:15.498Z,2.70
2023-03-06T17:21:28.905Z,2.80
2023-03-06T17:23:42.094Z,2.20
2023-03-06T17:25:55.160Z,2.10
2023-03-06T17:28:08.764Z,1.70
2023-03-06T17:30:22.353Z,1.90
2023-03-06T17:32:35.261Z,2.00
2023-03-06T17:34:48.446Z,2.20
2023-03-06T17:37:01.832Z,1.70
2023-03-06T17:39:14.688Z,2.30
2023-03-06T17:41:27.875Z,2.00
2023-03-06T17:43:42.062Z,1.70
2023-03-06T17:45:55.178Z,2.20
2023-03-06T17:48:08.001Z,1.80
2023-03-06T17:50:20.878Z,1.80
2023-03-06T17:52:34.652Z,1.40
2023-03-06T17:54:47.748Z,1.90
2023-03-06T17:57:02.120Z,1.40
2023-03-06T17:59:15.326Z,1.10
2023-03-06T18:01:29.587Z,1.50
2023-03-06T18:03:42.600Z,1.50
2023-03-06T18:06:04.552Z,1.20
2023-03-06T18:08:17.797Z,1.40
2023-03-06T18:10:31.214Z,0.90
2023-03-06T18:12:44.548Z,1.30
2023-03-06T18:14:57.179Z,1.40
2023-03-06T18:17:10.772Z,1.00
2023-03-06T18:19:24.662Z,1.30
2023-03-06T18:21:37.398Z,1.30
2023-03-06T18:23:51.555Z,0.90
2023-03-06T18:26:16.018Z,0.90
2023-03-06T18:28:31.989Z,1.30
2023-03-06T18:30:46.571Z,1.10
2023-03-06T18:32:59.442Z,1.10
2023-03-06T18:35:14.674Z,1.50
2023-03-06T18:37:27.727Z,1.00
2023-03-06T18:39:40.613Z,0.80
2023-03-06T18:41:53.306Z,0.90
2023-03-06T18:44:07.848Z,0.80
2023-03-06T18:46:20.857Z,0.90
2023-03-06T18:48:34.493Z,0.80
2023-03-06T18:50:47.407Z,0.80
2023-03-06T18:53:00.342Z,0.80
2023-03-06T18:55:15.640Z,1.10
2023-03-06T18:57:30.314Z,0.90
2023-03-06T18:59:43.648Z,1.00
2023-03-06T19:01:58.768Z,1.10
2023-03-06T19:04:12.017Z,1.00
2023-03-06T19:06:27.574Z,0.90
2023-03-06T19:08:41.463Z,1.00
2023-03-06T19:10:55.468Z,1.10
2023-03-06T19:13:09.041Z,1.00
2023-03-06T19:15:21.888Z,1.00
2023-03-06T19:17:34.993Z,1.00
2023-03-06T19:19:52.420Z,1.20
2023-03-06T19:22:05.620Z,1.50
2023-03-06T19:24:18.708Z,1.00
2023-03-06T19:26:32.948Z,0.90
2023-03-06T19:28:46.918Z,0.90
2023-03-06T19:31:00.163Z,1.00
2023-03-06T19:33:12.559Z,0.90
2023-03-06T19:35:26.673Z,0.90
2023-03-06T19:37:39.951Z,0.80
2023-03-06T19:39:52.949Z,1.00
2023-03-06T19:42:06.552Z,1.00
2023-03-06T19:44:19.968Z,1.00
2023-03-06T19:46:33.235Z,1.10
2023-03-06T19:48:46.640Z,1.10
2023-03-06T19:51:00.672Z,1.20
2023-03-06T19:53:14.414Z,1.20
2023-03-06T19:55:29.655Z,1.00
2023-03-06T19:57:44.607Z,1.00
2023-03-06T19:59:58.773Z,1.10
2023-03-06T20:02:12.867Z,1.20
2023-03-06T20:04:26.536Z,1.10
2023-03-06T20:06:40.112Z,0.70
2023-03-06T20:08:57.962Z,0.90
2023-03-06T20:11:17.555Z,0.90
2023-03-06T20:13:30.552Z,0.90
2023-03-06T20:15:43.664Z,1.10
2023-03-06T20:17:56.876Z,0.90
2023-03-06T20:20:13.879Z,1.00
2023-03-06T20:22:28.495Z,1.00
2023-03-06T20:24:48.966Z,1.00
2023-03-06T20:27:02.025Z,0.80
2023-03-06T20:29:20.454Z,0.90
2023-03-06T20:32:12.433Z,0.80
2023-03-06T20:34:57.522Z,1.00
2023-03-06T20:37:20.716Z,0.80
2023-03-06T20:39:33.796Z,0.70
2023-03-06T20:41:48.573Z,0.70
2023-03-06T20:44:01.441Z,1.40
2023-03-06T20:46:17.125Z,0.80
2023-03-06T20:48:30.447Z,0.70
2023-03-06T20:50:45.286Z,0.80
2023-03-06T20:53:02.090Z,0.80
2023-03-06T20:55:15.973Z,1.10
2023-03-06T20:57:28.688Z,1.10
2023-03-06T20:59:42.483Z,0.70
2023-03-06T21:01:55.446Z,1.50
2023-03-06T21:04:10.957Z,0.90
2023-03-06T21:06:23.759Z,1.20
2023-03-06T21:08:36.995Z,0.80
2023-03-06T21:10:50.388Z,0.80
2023-03-06T21:13:03.230Z,1.10
2023-03-06T21:15:17.737Z,0.80
2023-03-06T21:17:31.480Z,1.70
2023-03-06T21:19:44.452Z,0.90
2023-03-06T21:21:57.752Z,0.80
2023-03-06T21:24:11.308Z,1.30
2023-03-06T21:26:25.521Z,0.70
2023-03-06T21:28:38.812Z,0.80
2023-03-06T21:30:52.410Z,0.80
2023-03-06T21:33:05.685Z,0.70
2023-03-06T21:35:18.602Z,0.80
2023-03-06T21:37:31.617Z,0.70
2023-03-06T21:39:44.517Z,0.80
2023-03-06T21:41:57.876Z,0.80
2023-03-06T21:44:11.051Z,1.10
2023-03-06T21:46:24.077Z,0.80
2023-03-06T21:48:37.044Z,0.80
2023-03-06T21:50:50.194Z,0.90
2023-03-06T21:53:03.609Z,0.70
2023-03-06T21:55:18.163Z,0.70
2023-03-06T21:57:32.232Z,1.00
2023-03-06T21:59:45.317Z,1.10
2023-03-06T22:01:58.293Z,0.90
2023-03-06T22:04:11.167Z,0.90
2023-03-06T22:06:26.667Z,1.10
2023-03-06T22:08:39.379Z,0.80
2023-03-06T22:10:52.770Z,0.80
2023-03-06T22:13:05.510Z,0.80
2023-03-06T22:15:18.822Z,0.70
2023-03-06T22:17:31.445Z,1.10
2023-03-06T22:19:44.215Z,0.70
2023-03-06T22:21:58.622Z,0.80
2023-03-06T22:24:12.149Z,0.90
2023-03-06T22:26:28.449Z,0.80
2023-03-06T22:28:42.886Z,0.80
2023-03-06T22:30:56.422Z,1.00
2023-03-06T22:33:10.439Z,1.00
2023-03-06T22:35:24.524Z,0.80
2023-03-06T22:37:37.897Z,0.70
2023-03-06T22:39:51.885Z,0.70
2023-03-06T22:42:06.319Z,0.80
2023-03-06T22:44:22.007Z,0.90
2023-03-06T22:46:35.898Z,0.80
2023-03-06T22:48:49.900Z,0.90
2023-03-06T22:51:08.644Z,0.90
2023-03-06T22:53:21.390Z,0.70
2023-03-06T22:55:37.510Z,0.70
2023-03-06T22:57:52.538Z,0.90
2023-03-06T23:00:05.628Z,0.80
2023-03-06T23:02:19.636Z,0.90
2023-03-06T23:04:33.018Z,0.70
2023-03-06T23:06:48.103Z,0.90
2023-03-06T23:09:01.844Z,0.80
2023-03-06T23:11:17.175Z,1.10
2023-03-06T23:13:49.800Z,0.70
2023-03-06T23:16:20.901Z,1.00
2023-03-06T23:18:53.823Z,0.70
2023-03-06T23:21:27.530Z,0.90
2023-03-06T23:24:00.813Z,0.60
2023-03-06T23:26:16.309Z,1.00
2023-03-06T23:28:31.452Z,0.80
2023-03-06T23:30:45.782Z,1.00
2023-03-06T23:32:58.715Z,0.90
2023-03-06T23:35:12.495Z,1.10
2023-03-06T23:37:25.858Z,0.90
2023-03-06T23:39:39.566Z,0.70
2023-03-06T23:41:53.933Z,0.90
2023-03-06T23:44:07.497Z,0.90
2023-03-06T23:46:20.733Z,0.80
2023-03-06T23:48:33.858Z,0.60
2023-03-06T23:50:47.745Z,1.00
2023-03-06T23:53:01.105Z,0.70
2023-03-06T23:55:14.633Z,0.90
2023-03-06T23:57:27.920Z,0.70
2023-03-06T23:59:42.705Z,0.80
